Time;durP1;ratioP1;P1;durP2;ratioP2;P2;SDS_P1;SDS_P2;PMS_P1;PMS_P2;Temp;Humidity;BMP_temperature;BMP_pressure;BME280_temperature;BME280_humidity;BME280_pressure;Samples;Min_cycle;Max_cycle;Signal;HPM_P1;HPM_P2
2022/06/19 00:02:21;;;;;;;;;;;;;;;-140.72;100.00;52254.91;6293626;22;19911;-68
2022/06/19 00:04:47;;;;;;;;;;;;;;;-140.72;100.00;52248.81;6292396;22;19957;-68
2022/06/19 00:07:12;;;;;;;;;;;;;;;-140.72;100.00;52252.88;6293291;22;19911;-68
2022/06/19 00:09:38;;;;;;;;;;;;;;;-140.72;100.00;52325.94;6294294;22;19911;-69
2022/06/19 00:12:03;;;;;;;;;;;;;;;-140.72;100.00;52258.97;6292698;22;19927;-68
2022/06/19 00:14:29;;;;;;;;;;;;;;;-140.72;100.00;52240.72;6292860;22;19911;-68
2022/06/19 00:16:54;;;;;;;;;;;;;;;-140.72;100.00;52267.09;6292369;22;19919;-68
2022/06/19 00:19:20;;;;;;;;;;;;;;;-140.72;100.00;52297.53;6294414;22;19916;-68
2022/06/19 00:21:46;;;;;;;;;;;;;;;-140.72;100.00;52248.81;6294428;22;19918;-68
2022/06/19 00:24:11;;;;;;;;;;;;;;;-140.72;100.00;52281.28;6294882;22;19934;-69
2022/06/19 00:26:36;;;;;;;;;;;;;;;-140.72;100.00;52287.38;6294479;22;19955;-68
2022/06/19 00:29:02;;;;;;;;;;;;;;;-140.72;100.00;52287.38;6294431;22;19911;-68
2022/06/19 00:31:27;;;;;;;;;;;;;;;-140.72;100.00;52269.13;6292493;22;19919;-68
2022/06/19 00:33:55;;;;;;;;;;;;;;;-140.72;100.00;52307.66;6292707;22;19912;-68
2022/06/19 00:36:26;;;;;;;;;;;;;;;-140.72;100.00;52242.75;6292320;22;19998;-68
2022/06/19 00:38:51;;;;;;;;;;;;;;;-140.72;100.00;52261.00;6266060;22;19911;-68
2022/06/19 00:41:17;;;;;;;;;;;;;;;-140.72;100.00;52252.88;6291636;22;19917;-68
2022/06/19 00:44:05;;;;;;;;;;;;;;;-140.72;100.00;52230.56;6293169;22;19911;-68
2022/06/19 00:46:47;;;;;;;;;;;;;;;-140.72;100.00;52273.19;6293658;22;19933;-69
2022/06/19 00:49:20;;;;;;;;;;;;;;;-140.72;100.00;52293.47;6292026;22;19911;-69
2022/06/19 00:51:46;;;;;;;;;;;;;;;-140.72;100.00;52263.03;6292005;22;19915;-67
2022/06/19 00:54:14;;;;;;;;;;;;;;;-140.72;100.00;52256.94;6292443;22;19911;-68
2022/06/19 00:56:39;;;;;;;;;;;;;;;-140.72;100.00;52267.09;6292314;22;19946;-68
2022/06/19 00:59:06;;;;;;;;;;;;;;;-140.72;100.00;52248.81;6292810;22;19915;-68
2022/06/19 01:01:31;;;;;;;;;;;;;;;-140.72;100.00;52252.88;6292278;22;19981;-68
2022/06/19 01:04:01;;;;;;;;;;;;;;;-140.72;100.00;52273.19;6291641;22;19911;-69
2022/06/19 01:06:26;;;;;;;;;;;;;;;-140.72;100.00;52283.31;6291635;22;19920;-68
2022/06/19 01:08:52;;;;;;;;;;;;;;;-140.72;100.00;52224.47;6293103;22;19915;-69
2022/06/19 01:11:19;;;;;;;;;;;;;;;-140.72;100.00;52261.00;6292472;22;19931;-69
2022/06/19 01:13:44;;;;;;;;;;;;;;;-140.72;100.00;52277.22;6292998;22;19911;-68
2022/06/19 01:16:10;;;;;;;;;;;;;;;-140.72;100.00;52248.81;6291801;22;19916;-68
2022/06/19 01:18:37;;;;;;;;;;;;;;;-140.72;100.00;52254.91;6291708;22;19939;-68
2022/06/19 01:21:12;;;;;;;;;;;;;;;-140.72;100.00;52265.06;6291382;22;19911;-68
2022/06/19 01:23:56;;;;;;;;;;;;;;;-140.72;100.00;52246.78;6292027;22;19951;-68
2022/06/19 01:26:22;;;;;;;;;;;;;;;-140.72;100.00;52265.06;6290867;22;19937;-68
2022/06/19 01:29:06;;;;;;;;;;;;;;;-140.72;100.00;52291.44;6265000;22;19919;-69
2022/06/19 01:31:52;;;;;;;;;;;;;;;-140.72;100.00;52267.09;6262478;22;19911;-68
2022/06/19 01:34:36;;;;;;;;;;;;;;;-140.72;100.00;52269.13;6290744;22;19912;-68
2022/06/19 01:37:11;;;;;;;;;;;;;;;-140.72;100.00;52293.47;6289488;22;19911;-68
2022/06/19 01:39:42;;;;;;;;;;;;;;;-140.72;100.00;52303.59;6292359;22;20166;-69
2022/06/19 01:42:08;;;;;;;;;;;;;;;-140.72;100.00;52265.06;6292158;22;19918;-68
2022/06/19 01:44:33;;;;;;;;;;;;;;;-140.72;100.00;52254.91;6293360;22;19911;-68
2022/06/19 01:46:59;;;;;;;;;;;;;;;-140.72;100.00;52240.72;6294097;22;19926;-69
2022/06/19 01:49:24;;;;;;;;;;;;;;;-140.72;100.00;52273.19;6290925;22;19921;-69
2022/06/19 01:51:51;;;;;;;;;;;;;;;-140.72;100.00;52248.81;6291103;22;19911;-69
2022/06/19 01:54:20;;;;;;;;;;;;;;;-140.72;100.00;52263.03;6291907;22;19911;-68
2022/06/19 01:56:45;;;;;;;;;;;;;;;-140.72;100.00;52265.06;6291272;22;19935;-69
2022/06/19 01:59:11;;;;;;;;;;;;;;;-140.72;100.00;52267.09;6263473;22;19918;-68
2022/06/19 02:01:37;;;;;;;;;;;;;;;-140.72;100.00;52273.19;6291888;22;19911;-69
2022/06/19 02:04:05;;;;;;;;;;;;;;;-140.72;100.00;52261.00;6291669;22;19958;-70
2022/06/19 02:06:34;;;;;;;;;;;;;;;-140.72;100.00;52263.03;6290715;22;19918;-69
2022/06/19 02:09:01;;;;;;;;;;;;;;;-140.72;100.00;52271.16;6291391;22;19934;-68
2022/06/19 02:11:26;;;;;;;;;;;;;;;-140.72;100.00;52275.19;6291096;22;20325;-68
2022/06/19 02:13:53;;;;;;;;;;;;;;;-140.72;100.00;52236.66;6290874;22;19975;-69
2022/06/19 02:16:20;;;;;;;;;;;;;;;-140.72;100.00;52269.13;6258098;23;19922;-68
2022/06/19 02:18:47;;;;;;;;;;;;;;;-140.72;100.00;52271.16;6259111;22;19922;-68
2022/06/19 02:21:32;;;;;;;;;;;;;;;-140.72;100.00;52275.19;6258541;23;19962;-69
2022/06/19 02:23:57;;;;;;;;;;;;;;;-140.72;100.00;52261.00;6261455;22;19912;-68
2022/06/19 02:26:23;;;;;;;;;;;;;;;-140.72;100.00;52273.19;6258799;23;19915;-68
2022/06/19 02:28:49;;;;;;;;;;;;;;;-140.72;100.00;52285.34;6263311;23;19943;-69
2022/06/19 02:31:16;;;;;;;;;;;;;;;-140.72;100.00;52299.56;6260247;22;19938;-68
2022/06/19 03:26:05;;;;;;;;;;;;;;;-140.72;100.00;52295.50;6264662;22;19923;-71
2022/06/19 03:28:31;;;;;;;;;;;;;;;-140.72;100.00;52267.09;6252792;22;19947;-72
2022/06/19 03:30:56;;;;;;;;;;;;;;;-140.72;100.00;52277.22;6280542;22;19962;-72
2022/06/19 03:33:21;;;;;;;;;;;;;;;-140.72;100.00;52283.31;6280289;22;19912;-72
2022/06/19 03:35:46;;;;;;;;;;;;;;;-140.72;100.00;52325.94;6282036;22;19915;-71
2022/06/19 03:41:05;;;;;;;;;;;;;;;-140.72;100.00;52303.59;6281367;22;19911;-72
2022/06/19 03:43:38;;;;;;;;;;;;;;;-140.72;100.00;52311.72;6281873;22;20214;-72
2022/06/19 03:46:07;;;;;;;;;;;;;;;-140.72;100.00;52307.66;6254391;22;19915;-71
2022/06/19 03:48:33;;;;;;;;;;;;;;;-140.72;100.00;52301.59;6282046;22;20236;-71
2022/06/19 03:50:58;;;;;;;;;;;;;;;-140.72;100.00;52265.06;6280331;22;19918;-72
2022/06/19 03:53:23;;;;;;;;;;;;;;;-140.72;100.00;52313.75;6281068;22;19926;-71
2022/06/19 03:55:49;;;;;;;;;;;;;;;-140.72;100.00;52344.19;6281260;22;19911;-71
2022/06/19 03:58:14;;;;;;;;;;;;;;;-140.72;100.00;52309.69;6280240;22;19926;-71
2022/06/19 04:00:40;;;;;;;;;;;;;;;-140.72;100.00;52330.00;6279683;22;19952;-72
2022/06/19 04:03:05;;;;;;;;;;;;;;;-140.72;100.00;52332.03;6279878;22;20391;-72
2022/06/19 04:05:31;;;;;;;;;;;;;;;-140.72;100.00;52334.03;6279409;22;20340;-72
2022/06/19 04:07:57;;;;;;;;;;;;;;;-140.72;100.00;52366.50;6279275;22;20220;-71
2022/06/19 04:10:22;;;;;;;;;;;;;;;-140.72;100.00;52317.81;6278245;22;19919;-72
2022/06/19 04:12:47;;;;;;;;;;;;;;;-140.72;100.00;52338.09;6250833;22;19942;-72
2022/06/19 04:15:12;;;;;;;;;;;;;;;-140.72;100.00;52360.44;6277845;22;20287;-73
2022/06/19 04:17:38;;;;;;;;;;;;;;;-140.72;100.00;52327.97;6278012;22;20344;-71
2022/06/19 04:20:04;;;;;;;;;;;;;;;-140.72;100.00;52358.41;6277962;22;19915;-72
2022/06/19 04:22:30;;;;;;;;;;;;;;;-140.72;100.00;52315.78;6277755;22;20297;-71
2022/06/19 04:24:55;;;;;;;;;;;;;;;-140.72;100.00;52350.28;6277069;22;20014;-71
2022/06/19 04:27:20;;;;;;;;;;;;;;;-140.72;100.00;52356.38;6278204;22;19911;-72
2022/06/19 04:29:45;;;;;;;;;;;;;;;-140.72;100.00;52342.16;6277925;22;19915;-71
2022/06/19 04:32:10;;;;;;;;;;;;;;;-140.72;100.00;52330.00;6277042;22;19911;-71
2022/06/19 04:34:36;;;;;;;;;;;;;;;-140.72;100.00;52321.88;6277888;22;19922;-72
2022/06/19 04:37:01;;;;;;;;;;;;;;;-140.72;100.00;52334.03;6285377;22;19990;-71
2022/06/19 04:39:26;;;;;;;;;;;;;;;-140.72;100.00;52321.88;6282702;22;20001;-72
2022/06/19 04:41:51;;;;;;;;;;;;;;;-140.72;100.00;52303.59;6281421;22;19911;-71
2022/06/19 04:44:17;;;;;;;;;;;;;;;-140.72;100.00;52327.97;6281820;22;19954;-71
2022/06/19 04:46:43;;;;;;;;;;;;;;;-140.72;100.00;52265.06;6249107;22;19955;-72
2022/06/19 04:49:08;;;;;;;;;;;;;;;-140.72;100.00;52295.50;6276823;22;19935;-72
2022/06/19 04:51:33;;;;;;;;;;;;;;;-140.72;100.00;52309.69;6277378;22;19923;-72
2022/06/19 04:53:58;;;;;;;;;;;;;;;-140.72;100.00;52315.78;6278769;22;19933;-72
2022/06/19 04:56:24;;;;;;;;;;;;;;;-140.72;100.00;52344.19;6277999;22;20283;-72
2022/06/19 04:58:50;;;;;;;;;;;;;;;-140.72;100.00;52293.47;6286292;22;20003;-71
2022/06/19 05:01:41;;;;;;;;;;;;;;;-140.72;100.00;52348.25;6279654;22;19937;-71
2022/06/19 05:04:08;;;;;;;;;;;;;;;-140.72;100.00;52366.50;6246076;22;19968;-71
2022/06/19 05:06:34;;;;;;;;;;;;;;;-140.72;100.00;52332.03;6278849;22;19911;-72
2022/06/19 05:08:59;;;;;;;;;;;;;;;-140.72;100.00;52315.78;6279466;22;19918;-71
2022/06/19 05:11:25;;;;;;;;;;;;;;;-140.72;100.00;52330.00;6278569;22;19947;-71
2022/06/19 05:13:50;;;;;;;;;;;;;;;-140.72;100.00;52376.66;6277493;22;19937;-71
2022/06/19 05:16:17;;;;;;;;;;;;;;;-140.72;100.00;52317.81;6277406;22;19911;-71
2022/06/19 05:18:43;;;;;;;;;;;;;;;-140.72;100.00;52362.44;6277026;22;20290;-71
2022/06/19 05:21:09;;;;;;;;;;;;;;;-140.72;100.00;52378.69;6287180;22;19957;-71
2022/06/19 05:23:36;;;;;;;;;;;;;;;-140.72;100.00;52350.28;6289215;22;19946;-73
2022/06/19 05:26:10;;;;;;;;;;;;;;;-140.72;100.00;52323.91;6286274;22;20605;-73
2022/06/19 05:28:36;;;;;;;;;;;;;;;-140.72;100.00;52354.34;6285176;22;19912;-73
2022/06/19 05:31:02;;;;;;;;;;;;;;;-140.72;100.00;52386.81;6284680;22;19943;-71
2022/06/19 05:33:28;;;;;;;;;;;;;;;-140.72;100.00;52358.41;6278354;22;19911;-72
2022/06/19 05:35:53;;;;;;;;;;;;;;;-140.72;100.00;52378.69;6279812;22;19973;-72
2022/06/19 05:38:19;;;;;;;;;;;;;;;-140.72;100.00;52348.25;6248745;22;19915;-74
2022/06/19 05:40:44;;;;;;;;;;;;;;;-140.72;100.00;52407.09;6275275;22;19976;-75
2022/06/19 05:43:09;;;;;;;;;;;;;;;-140.72;100.00;52366.50;6250942;22;20221;-74
2022/06/19 05:45:35;;;;;;;;;;;;;;;-140.72;100.00;52334.03;6249763;22;19997;-74
2022/06/19 05:48:00;;;;;;;;;;;;;;;-140.72;100.00;52396.94;6277181;22;20002;-76
2022/06/19 05:50:25;;;;;;;;;;;;;;;-140.72;100.00;52419.28;6275606;22;19911;-76
2022/06/19 05:52:50;;;;;;;;;;;;;;;-140.72;100.00;52348.25;6247970;22;20186;-76
2022/06/19 05:55:16;;;;;;;;;;;;;;;-140.72;100.00;52368.53;6248048;22;20329;-74
2022/06/19 05:57:41;;;;;;;;;;;;;;;-140.72;100.00;52364.47;6275618;22;20325;-75
2022/06/19 06:00:08;;;;;;;;;;;;;;;-140.72;100.00;52360.44;6273962;22;19930;-75
2022/06/19 06:02:39;;;;;;;;;;;;;;;-140.72;100.00;52362.44;6274153;22;20001;-75
2022/06/19 06:05:05;;;;;;;;;;;;;;;-140.72;100.00;52370.56;6275242;22;20406;-74
2022/06/19 06:07:31;;;;;;;;;;;;;;;-140.72;100.00;52356.38;6276187;22;19911;-74
2022/06/19 06:09:56;;;;;;;;;;;;;;;-140.72;100.00;52342.16;6247904;22;19911;-76
2022/06/19 06:12:22;;;;;;;;;;;;;;;-140.72;100.00;52384.78;6276171;22;19933;-75
2022/06/19 06:14:48;;;;;;;;;;;;;;;-140.72;100.00;52362.44;6249840;22;19991;-74
2022/06/19 06:17:13;;;;;;;;;;;;;;;-140.72;100.00;52382.75;6246571;22;19912;-75
2022/06/19 06:19:38;;;;;;;;;;;;;;;-140.72;100.00;52344.19;6276144;22;19943;-75
2022/06/19 06:22:04;;;;;;;;;;;;;;;-140.72;100.00;52366.50;6278370;22;20006;-74
2022/06/19 06:24:29;;;;;;;;;;;;;;;-140.72;100.00;52348.25;6250212;22;20382;-74
2022/06/19 06:26:55;;;;;;;;;;;;;;;-140.72;100.00;52346.22;6274490;22;19918;-75
2022/06/19 06:29:21;;;;;;;;;;;;;;;-140.72;100.00;52330.00;6282509;22;19922;-72
2022/06/19 06:31:46;;;;;;;;;;;;;;;-140.72;100.00;52360.44;6277131;22;19984;-73
2022/06/19 06:34:11;;;;;;;;;;;;;;;-140.72;100.00;52394.91;6247069;22;19914;-74
2022/06/19 06:36:37;;;;;;;;;;;;;;;-140.72;100.00;52372.59;6274875;22;19911;-73
2022/06/19 06:39:02;;;;;;;;;;;;;;;-140.72;100.00;52346.22;6274600;22;19963;-73
2022/06/19 06:41:27;;;;;;;;;;;;;;;-140.72;100.00;52370.56;6248559;22;20241;-73
2022/06/19 06:43:52;;;;;;;;;;;;;;;-140.72;100.00;52386.81;6279991;22;19911;-74
2022/06/19 06:46:20;;;;;;;;;;;;;;;-140.72;100.00;52372.59;6276175;22;19918;-75
2022/06/19 06:48:45;;;;;;;;;;;;;;;-140.72;100.00;52358.41;6251542;22;19930;-74
2022/06/19 06:51:15;;;;;;;;;;;;;;;-140.72;100.00;52366.50;6251000;22;20264;-75
2022/06/19 06:53:40;;;;;;;;;;;;;;;-140.72;100.00;52364.47;6276722;22;20011;-75
2022/06/19 06:56:08;;;;;;;;;;;;;;;-140.72;100.00;52378.69;6289286;22;19911;-74
2022/06/19 06:58:33;;;;;;;;;;;;;;;-140.72;100.00;52403.03;6268127;22;19982;-75
2022/06/19 07:01:05;;;;;;;;;;;;;;;-140.72;100.00;52388.84;6284491;22;19934;-74
2022/06/19 07:03:30;;;;;;;;;;;;;;;-140.72;100.00;52350.28;6254304;22;19956;-74
2022/06/19 07:05:56;;;;;;;;;;;;;;;-140.72;100.00;52362.44;6251534;22;19911;-74
2022/06/19 07:08:21;;;;;;;;;;;;;;;-140.72;100.00;52374.63;6278213;22;19912;-75
2022/06/19 07:10:46;;;;;;;;;;;;;;;-140.72;100.00;52374.63;6280225;22;20048;-74
2022/06/19 07:13:12;;;;;;;;;;;;;;;-140.72;100.00;52374.63;6279921;22;19939;-74
2022/06/19 07:15:38;;;;;;;;;;;;;;;-140.72;100.00;52368.53;6279691;22;19915;-72
2022/06/19 07:18:03;;;;;;;;;;;;;;;-140.72;100.00;52366.50;6252358;22;19989;-72
2022/06/19 07:20:28;;;;;;;;;;;;;;;-140.72;100.00;52356.38;6278072;22;19911;-74
2022/06/19 07:22:53;;;;;;;;;;;;;;;-140.72;100.00;52398.97;6278551;22;19923;-72
2022/06/19 07:25:20;;;;;;;;;;;;;;;-140.72;100.00;52382.75;6277961;22;19915;-73
2022/06/19 07:27:45;;;;;;;;;;;;;;;-140.72;100.00;52362.44;6283926;22;19911;-70
2022/06/19 07:30:15;;;;;;;;;;;;;;;-140.72;100.00;52360.44;6287491;22;19911;-70
2022/06/19 07:32:40;;;;;;;;;;;;;;;-140.72;100.00;52390.84;6286887;22;19923;-70
2022/06/19 07:35:05;;;;;;;;;;;;;;;-140.72;100.00;52415.22;6287730;22;19911;-71
2022/06/19 07:37:30;;;;;;;;;;;;;;;-140.72;100.00;52388.84;6288177;22;19911;-70
2022/06/19 07:39:56;;;;;;;;;;;;;;;-140.72;100.00;52350.28;6290311;22;20021;-68
2022/06/19 07:42:22;;;;;;;;;;;;;;;-140.72;100.00;52388.84;6288477;22;19911;-69
2022/06/19 07:44:49;;;;;;;;;;;;;;;-140.72;100.00;52403.03;6255414;22;19911;-69
2022/06/19 07:50:10;;;;;;;;;;;;;;;-140.72;100.00;52370.56;6283622;22;19930;-69
2022/06/19 07:52:39;;;;;;;;;;;;;;;-140.72;100.00;52390.84;6288499;22;19915;-75
2022/06/19 07:55:05;;;;;;;;;;;;;;;-140.72;100.00;52388.84;6257997;22;19915;-69
2022/06/19 07:57:31;;;;;;;;;;;;;;;-140.72;100.00;52358.41;6283416;22;19911;-69
2022/06/19 07:59:56;;;;;;;;;;;;;;;-140.72;100.00;52372.59;6279604;22;20002;-74
2022/06/19 08:02:24;;;;;;;;;;;;;;;-140.72;100.00;52348.25;6274933;22;19957;-73
2022/06/19 08:04:49;;;;;;;;;;;;;;;-140.72;100.00;52350.28;6277415;22;19929;-73
2022/06/19 08:07:15;;;;;;;;;;;;;;;-140.72;100.00;52362.44;6275361;22;19994;-73
2022/06/19 08:09:41;;;;;;;;;;;;;;;-140.72;100.00;52325.94;6248812;22;19912;-75
2022/06/19 08:12:06;;;;;;;;;;;;;;;-140.72;100.00;52311.72;6278562;22;19971;-75
2022/06/19 08:14:31;;;;;;;;;;;;;;;-140.72;100.00;52342.16;6255983;22;19916;-74
2022/06/19 08:16:57;;;;;;;;;;;;;;;-140.72;100.00;52325.94;6277153;22;19922;-73
2022/06/19 08:19:22;;;;;;;;;;;;;;;-140.72;100.00;52346.22;6276081;22;19911;-74
2022/06/19 08:21:47;;;;;;;;;;;;;;;-140.72;100.00;52301.59;6275113;22;20048;-73
2022/06/19 08:24:12;;;;;;;;;;;;;;;-140.72;100.00;52305.63;6274571;22;19915;-73
2022/06/19 08:26:38;;;;;;;;;;;;;;;-140.72;100.00;52315.78;6275048;22;19994;-73
2022/06/19 08:29:03;;;;;;;;;;;;;;;-140.72;100.00;52309.69;6276355;22;19986;-73
2022/06/19 08:31:29;;;;;;;;;;;;;;;-140.72;100.00;52334.03;6276310;22;19911;-73
2022/06/19 08:33:54;;;;;;;;;;;;;;;-140.72;100.00;52348.25;6277039;22;19919;-73
2022/06/19 08:36:20;;;;;;;;;;;;;;;-140.72;100.00;52311.72;6248984;22;19973;-74
2022/06/19 08:38:50;;;;;;;;;;;;;;;-140.72;100.00;52346.22;6249537;22;19963;-73
2022/06/19 08:41:34;;;;;;;;;;;;;;;-140.72;100.00;52317.81;6275641;22;19915;-73
2022/06/19 08:43:59;;;;;;;;;;;;;;;-140.72;100.00;52362.44;6276038;22;19911;-73
2022/06/19 08:46:48;;;;;;;;;;;;;;;-140.72;100.00;52325.94;6276111;22;19911;-73
2022/06/19 08:49:22;;;;;;;;;;;;;;;-140.72;100.00;52350.28;6277005;22;19960;-73
2022/06/19 08:51:57;;;;;;;;;;;;;;;-140.72;100.00;52317.81;6250693;22;20010;-73
2022/06/19 08:54:30;;;;;;;;;;;;;;;-140.72;100.00;52327.97;6249153;22;19922;-73
2022/06/19 08:57:17;;;;;;;;;;;;;;;-140.72;100.00;52321.88;6249368;22;19965;-73
2022/06/19 08:59:45;;;;;;;;;;;;;;;-140.72;100.00;52256.94;6268278;22;19937;-72
2022/06/19 09:02:10;;;;;;;;;;;;;;;-140.72;100.00;52313.75;6282474;22;19911;-73
2022/06/19 09:07:32;;;;;;;;;;;;;;;-140.72;100.00;52338.09;6294298;22;19964;-74
2022/06/19 09:10:03;;;;;;;;;;;;;;;-140.72;100.00;52295.50;6280466;22;19946;-76
2022/06/19 09:12:35;;;;;;;;;;;;;;;-140.72;100.00;52303.59;6261349;22;19917;-74
2022/06/19 09:15:00;;;;;;;;;;;;;;;-140.72;100.00;52307.66;6287438;22;19912;-77
2022/06/19 09:17:28;;;;;;;;;;;;;;;-140.72;100.00;52283.31;6259397;22;20264;-73
2022/06/19 09:20:29;;;;;;;;;;;;;;;-140.72;100.00;52293.47;6261004;22;19923;-72
2022/06/19 09:22:58;;;;;;;;;;;;;;;-140.72;100.00;52269.13;6197310;23;19938;-73
2022/06/19 09:25:44;;;;;;;;;;;;;;;-140.72;100.00;52273.19;6276937;22;19919;-73
2022/06/19 09:28:12;;;;;;;;;;;;;;;-140.72;100.00;52265.06;6254644;22;19959;-73
2022/06/19 09:30:41;;;;;;;;;;;;;;;-140.72;100.00;52254.91;6278047;22;19927;-75
2022/06/19 09:33:14;;;;;;;;;;;;;;;-140.72;100.00;52204.19;6279279;22;19911;-74
2022/06/19 09:35:44;;;;;;;;;;;;;;;-140.72;100.00;52173.75;6251703;22;19938;-78
2022/06/19 09:38:13;;;;;;;;;;;;;;;-140.72;100.00;52179.84;6250311;22;19979;-75
2022/06/19 09:40:50;;;;;;;;;;;;;;;-140.72;100.00;52194.03;6256150;22;19931;-75
2022/06/19 09:43:20;;;;;;;;;;;;;;;-140.72;100.00;52265.06;6279127;22;19926;-77
2022/06/19 09:45:57;;;;;;;;;;;;;;;-140.72;100.00;52222.44;6249041;22;20000;-75
2022/06/19 09:48:29;;;;;;;;;;;;;;;-140.72;100.00;52236.66;6281892;22;20245;-76
2022/06/19 09:50:59;;;;;;;;;;;;;;;-140.72;100.00;52254.91;6253701;22;19985;-78
2022/06/19 09:53:36;;;;;;;;;;;;;;;-140.72;100.00;52271.16;6256365;22;19915;-73
2022/06/19 09:56:12;;;;;;;;;;;;;;;-140.72;100.00;52263.03;6260532;22;19931;-75
2022/06/19 09:58:42;;;;;;;;;;;;;;;-140.72;100.00;52325.94;6262517;22;19917;-74
2022/06/19 10:01:07;;;;;;;;;;;;;;;-140.72;100.00;52344.19;6279633;22;20021;-74
2022/06/19 10:03:32;;;;;;;;;;;;;;;-140.72;100.00;52352.31;6251520;22;19916;-74
2022/06/19 10:06:12;;;;;;;;;;;;;;;-140.72;100.00;52297.53;6280501;22;19942;-73
2022/06/19 10:08:48;;;;;;;;;;;;;;;-140.72;100.00;52256.94;6256018;22;19994;-76
2022/06/19 10:11:19;;;;;;;;;;;;;;;-140.72;100.00;52299.56;6267985;22;19918;-74
2022/06/19 10:13:47;;;;;;;;;;;;;;;-140.72;100.00;52301.59;6267714;22;19919;-76
2022/06/19 10:16:22;;;;;;;;;;;;;;;-140.72;100.00;52336.06;6283444;22;19933;-75
2022/06/19 10:18:50;;;;;;;;;;;;;;;-140.72;100.00;52313.75;6253810;22;19911;-74
2022/06/19 10:24:10;;;;;;;;;;;;;;;-140.72;100.00;52317.81;6217575;22;19911;-76
2022/06/19 10:26:46;;;;;;;;;;;;;;;-140.72;100.00;52295.50;6250154;22;19915;-75
2022/06/19 10:29:11;;;;;;;;;;;;;;;-140.72;100.00;52277.22;6280490;22;19911;-80
2022/06/19 10:31:47;;;;;;;;;;;;;;;-140.72;100.00;52291.44;6261701;22;19922;-78
2022/06/19 10:34:22;;;;;;;;;;;;;;;-140.72;100.00;52232.59;6265930;22;19915;-78
2022/06/19 10:36:50;;;;;;;;;;;;;;;-140.72;100.00;52246.78;6263939;22;19986;-75
2022/06/19 10:39:34;;;;;;;;;;;;;;;-140.72;100.00;52196.06;6260704;22;19911;-77
2022/06/19 10:42:26;;;;;;;;;;;;;;;-140.72;100.00;52177.81;6260595;22;19931;-76
2022/06/19 10:44:52;;;;;;;;;;;;;;;-140.72;100.00;52155.50;6256999;22;19936;-76
2022/06/19 10:47:32;;;;;;;;;;;;;;;-140.72;100.00;52125.06;6260425;22;19911;-77
2022/06/19 10:49:57;;;;;;;;;;;;;;;-140.72;100.00;52143.31;6253026;22;19923;-77
2022/06/19 10:52:26;;;;;;;;;;;;;;;-140.72;100.00;52039.84;6258654;22;19969;-75
2022/06/19 10:55:02;;;;;;;;;;;;;;;-140.72;100.00;52066.22;6254202;22;19911;-76
2022/06/19 10:57:46;;;;;;;;;;;;;;;-140.72;100.00;52078.38;6283780;22;19911;-79
2022/06/19 11:00:11;;;;;;;;;;;;;;;-140.72;100.00;52102.75;6268595;22;19931;-75
2022/06/19 11:05:31;;;;;;;;;;;;;;;-140.72;100.00;52011.44;6300525;22;20389;-75
2022/06/19 11:07:56;;;;;;;;;;;;;;;-140.72;100.00;52045.94;6299078;22;19933;-78
2022/06/19 11:10:25;;;;;;;;;;;;;;;-140.72;100.00;52017.53;6271676;22;19911;-78
2022/06/19 11:12:56;;;;;;;;;;;;;;;-140.72;100.00;52043.91;6265987;22;19912;-77
2022/06/19 11:15:24;;;;;;;;;;;;;;;-140.72;100.00;52096.66;6293549;22;19930;-76
2022/06/19 11:17:51;;;;;;;;;;;;;;;-140.72;100.00;52031.72;6262854;22;19911;-75
2022/06/19 11:20:17;;;;;;;;;;;;;;;-140.72;100.00;52005.34;6286761;22;19994;-77
2022/06/19 11:22:44;;;;;;;;;;;;;;;-140.72;100.00;52029.69;6288180;22;19919;-78
2022/06/19 11:25:30;;;;;;;;;;;;;;;-140.72;100.00;52037.81;6259609;22;19922;-77
2022/06/19 11:27:58;;;;;;;;;;;;;;;-140.72;100.00;52078.38;6286999;22;19911;-75
2022/06/19 11:30:42;;;;;;;;;;;;;;;-140.72;100.00;52078.38;6260886;22;19911;-76
2022/06/19 11:33:27;;;;;;;;;;;;;;;-140.72;100.00;52070.28;6261240;22;19907;-76
2022/06/19 11:35:55;;;;;;;;;;;;;;;-140.72;100.00;52094.63;6241195;22;20038;-76
2022/06/19 11:38:38;;;;;;;;;;;;;;;-140.72;100.00;52187.97;6266705;22;19930;-78
2022/06/19 11:41:21;;;;;;;;;;;;;;;-140.72;100.00;52108.81;6252641;22;19911;-76
2022/06/19 11:44:01;;;;;;;;;;;;;;;-140.72;100.00;52127.09;6278084;22;20288;-76
2022/06/19 11:46:26;;;;;;;;;;;;;;;-140.72;100.00;52169.69;6278471;22;20305;-75
2022/06/19 11:48:51;;;;;;;;;;;;;;;-140.72;100.00;52187.97;6250853;22;19918;-77
2022/06/19 11:51:20;;;;;;;;;;;;;;;-140.72;100.00;52171.72;6278923;22;19942;-77
2022/06/19 11:53:49;;;;;;;;;;;;;;;-140.72;100.00;52147.38;6280008;22;20034;-77
2022/06/19 11:56:34;;;;;;;;;;;;;;;-140.72;100.00;52155.50;6255120;22;20329;-73
2022/06/19 11:59:01;;;;;;;;;;;;;;;-140.72;100.00;52143.31;6253299;22;19995;-75
2022/06/19 12:01:38;;;;;;;;;;;;;;;-140.72;100.00;52116.94;6281978;22;19911;-75
2022/06/19 12:04:05;;;;;;;;;;;;;;;-140.72;100.00;52118.97;6290904;22;19921;-75
2022/06/19 12:06:49;;;;;;;;;;;;;;;-140.72;100.00;52137.22;6287499;22;20238;-75
2022/06/19 12:09:36;;;;;;;;;;;;;;;-140.72;100.00;52025.63;6258475;22;19954;-74
2022/06/19 12:12:06;;;;;;;;;;;;;;;-140.72;100.00;52100.72;6281343;22;20007;-76
2022/06/19 12:14:33;;;;;;;;;;;;;;;-140.72;100.00;52137.22;6256846;22;19912;-77
2022/06/19 12:17:16;;;;;;;;;;;;;;;-140.72;100.00;52123.03;6253816;22;19950;-73
2022/06/19 12:19:55;;;;;;;;;;;;;;;-140.72;100.00;52072.31;6252161;22;20258;-75
2022/06/19 12:22:23;;;;;;;;;;;;;;;-140.72;100.00;52131.16;6285862;22;19918;-76
2022/06/19 12:24:54;;;;;;;;;;;;;;;-140.72;100.00;52153.47;6280177;22;19923;-74
2022/06/19 12:27:23;;;;;;;;;;;;;;;-140.72;100.00;52147.38;6286664;22;19911;-75
2022/06/19 12:29:56;;;;;;;;;;;;;;;-140.72;100.00;52165.63;6288075;22;19912;-75
2022/06/19 12:32:25;;;;;;;;;;;;;;;-140.72;100.00;52043.91;6252921;22;19911;-74
2022/06/19 12:34:53;;;;;;;;;;;;;;;-140.72;100.00;52033.75;6278921;22;19926;-73
2022/06/19 12:37:23;;;;;;;;;;;;;;;-140.72;100.00;52102.75;6255562;22;19918;-75
2022/06/19 12:39:49;;;;;;;;;;;;;;;-140.72;100.00;52143.31;6282140;22;19912;-75
2022/06/19 12:42:21;;;;;;;;;;;;;;;-140.72;100.00;52159.56;6280296;22;19917;-77
2022/06/19 12:45:02;;;;;;;;;;;;;;;-140.72;100.00;52208.25;6256191;22;20237;-74
2022/06/19 12:47:46;;;;;;;;;;;;;;;-140.72;100.00;52171.72;6279633;22;19912;-73
2022/06/19 12:50:22;;;;;;;;;;;;;;;-140.72;100.00;52206.22;6251253;22;19923;-73
2022/06/19 12:53:06;;;;;;;;;;;;;;;-140.72;100.00;52179.84;6253499;22;19911;-73
2022/06/19 12:55:34;;;;;;;;;;;;;;;-140.72;100.00;52121.00;6255162;22;19911;-73
2022/06/19 12:58:14;;;;;;;;;;;;;;;-140.72;100.00;52092.59;6281884;22;19912;-72
2022/06/19 13:00:55;;;;;;;;;;;;;;;-140.72;100.00;52049.97;6296306;22;19911;-74
2022/06/19 13:03:44;;;;;;;;;;;;;;;-140.72;100.00;52068.25;6258948;22;19911;-74
2022/06/19 13:06:15;;;;;;;;;;;;;;;-140.72;100.00;52039.84;6237972;22;20007;-73
2022/06/19 13:08:59;;;;;;;;;;;;;;;-140.72;100.00;52027.66;6281439;22;20232;-72
2022/06/19 13:11:34;;;;;;;;;;;;;;;-140.72;100.00;51983.03;6285711;22;19919;-75
2022/06/19 13:14:11;;;;;;;;;;;;;;;-140.72;100.00;52043.91;6282135;22;20014;-74
2022/06/19 13:16:50;;;;;;;;;;;;;;;-140.72;100.00;52043.91;6280490;22;20387;-73
2022/06/19 13:19:30;;;;;;;;;;;;;;;-140.72;100.00;52110.84;6280170;22;19911;-74
2022/06/19 13:22:06;;;;;;;;;;;;;;;-140.72;100.00;52131.16;6280647;22;19911;-75
2022/06/19 13:24:37;;;;;;;;;;;;;;;-140.72;100.00;52185.94;6263791;22;19943;-79
2022/06/19 13:27:12;;;;;;;;;;;;;;;-140.72;100.00;52163.59;6275479;22;19938;-80
2022/06/19 13:29:51;;;;;;;;;;;;;;;-140.72;100.00;52145.34;6270962;22;19915;-79
2022/06/19 13:32:25;;;;;;;;;;;;;;;-140.72;100.00;52179.84;6276793;22;19919;-79
2022/06/19 13:34:56;;;;;;;;;;;;;;;-140.72;100.00;52131.16;6302854;22;19903;-78
2022/06/19 13:37:35;;;;;;;;;;;;;;;-140.72;100.00;52187.97;6270581;22;19914;-76